NVA1003 MPCE-MPWN
Flight info
| Callsign | NVA1003 |
|---|---|
| Flight time | 0h 56m |
| Altitude | 11500 |
| Route | RHT Q19 TBG A574 REMAL |
| Aircraft | PA31/L-SDFGRY/S |
Departure
| Time | 2026-05-06 10:20 |
|---|---|
| Airport | Alonso Valderrama Airport (MPCE) |
Arrival
| Time | 2026-05-06 11:17 |
|---|---|
| Airport | Wannukandi Airport (MPWN) |
| Time | Latitude | Longitude | Altitude | Speed | Heading |
|---|---|---|---|---|---|
| 2026-05-06 10:11 | 7.98181 | -80.41009 | 28 ft | 0 kts | 280° |
| 2026-05-06 10:18 | 7.98159 | -80.41018 | 28 ft | 9 kts | 195° |
| 2026-05-06 10:19 | 7.98124 | -80.41066 | 27 ft | 4 kts | 279° |
| 2026-05-06 10:19 | 7.98130 | -80.41090 | 27 ft | 2 kts | 285° |
| 2026-05-06 10:19 | 7.98135 | -80.41103 | 27 ft | 2 kts | 306° |
| 2026-05-06 10:19 | 7.98304 | -80.41084 | 28 ft | 49 kts | 12° |
| 2026-05-06 10:20 | 7.98847 | -80.40975 | 37 ft | 102 kts | 10° |
| 2026-05-06 10:20 | 7.99575 | -80.40899 | 346 ft | 102 kts | 354° |
| 2026-05-06 10:20 | 8.00220 | -80.40726 | 743 ft | 96 kts | 47° |
| 2026-05-06 10:20 | 8.00592 | -80.40163 | 1121 ft | 96 kts | 52° |
| 2026-05-06 10:21 | 8.01030 | -80.39642 | 1500 ft | 96 kts | 46° |
| 2026-05-06 10:21 | 8.01516 | -80.39161 | 1880 ft | 96 kts | 42° |
| 2026-05-06 10:21 | 8.02022 | -80.38718 | 2243 ft | 96 kts | 39° |
| 2026-05-06 10:21 | 8.02582 | -80.38270 | 2536 ft | 104 kts | 37° |
| 2026-05-06 10:22 | 8.03178 | -80.37813 | 2854 ft | 108 kts | 37° |
| 2026-05-06 10:22 | 8.03798 | -80.37346 | 3192 ft | 110 kts | 36° |
| 2026-05-06 10:22 | 8.04424 | -80.36882 | 3534 ft | 110 kts | 36° |
| 2026-05-06 10:22 | 8.05040 | -80.36430 | 3868 ft | 110 kts | 36° |
| 2026-05-06 10:23 | 8.05674 | -80.35967 | 4207 ft | 109 kts | 35° |
| 2026-05-06 10:23 | 8.06303 | -80.35507 | 4541 ft | 109 kts | 35° |
| 2026-05-06 10:23 | 8.06922 | -80.35055 | 4866 ft | 109 kts | 35° |
| 2026-05-06 10:23 | 8.07568 | -80.34586 | 5220 ft | 115 kts | 35° |
| 2026-05-06 10:24 | 8.08234 | -80.34100 | 5607 ft | 118 kts | 35° |
| 2026-05-06 10:24 | 8.08915 | -80.33602 | 6007 ft | 119 kts | 35° |
| 2026-05-06 10:24 | 8.09592 | -80.33107 | 6406 ft | 119 kts | 35° |
| 2026-05-06 10:24 | 8.10271 | -80.32612 | 6801 ft | 119 kts | 35° |
| 2026-05-06 10:25 | 8.10948 | -80.32117 | 7191 ft | 118 kts | 35° |
| 2026-05-06 10:25 | 8.11610 | -80.31633 | 7569 ft | 117 kts | 35° |
| 2026-05-06 10:25 | 8.12283 | -80.31143 | 7947 ft | 117 kts | 35° |
| 2026-05-06 10:25 | 8.12952 | -80.30655 | 8319 ft | 116 kts | 35° |
| 2026-05-06 10:26 | 8.13610 | -80.30175 | 8679 ft | 116 kts | 35° |
| 2026-05-06 10:26 | 8.14271 | -80.29694 | 9036 ft | 115 kts | 35° |
| 2026-05-06 10:26 | 8.14924 | -80.29218 | 9384 ft | 114 kts | 35° |
| 2026-05-06 10:26 | 8.15582 | -80.28738 | 9729 ft | 114 kts | 35° |
| 2026-05-06 10:27 | 8.16237 | -80.28260 | 10068 ft | 113 kts | 35° |
| 2026-05-06 10:27 | 8.16884 | -80.27787 | 10399 ft | 113 kts | 35° |
| 2026-05-06 10:27 | 8.17524 | -80.27319 | 10721 ft | 112 kts | 35° |
| 2026-05-06 10:27 | 8.18159 | -80.26856 | 11037 ft | 112 kts | 35° |
| 2026-05-06 10:28 | 8.18802 | -80.26386 | 11351 ft | 112 kts | 35° |
| 2026-05-06 10:28 | 8.19444 | -80.25917 | 11647 ft | 113 kts | 35° |
| 2026-05-06 10:28 | 8.20179 | -80.25382 | 11597 ft | 141 kts | 35° |
| 2026-05-06 10:28 | 8.21055 | -80.24746 | 11585 ft | 159 kts | 35° |
| 2026-05-06 10:29 | 8.21993 | -80.24061 | 11580 ft | 171 kts | 35° |
| 2026-05-06 10:29 | 8.22997 | -80.23326 | 11577 ft | 179 kts | 35° |
| 2026-05-06 10:29 | 8.24051 | -80.22556 | 11576 ft | 185 kts | 35° |
| 2026-05-06 10:29 | 8.25118 | -80.21777 | 11575 ft | 188 kts | 35° |
| 2026-05-06 10:30 | 8.26207 | -80.20982 | 11574 ft | 191 kts | 35° |
| 2026-05-06 10:30 | 8.27284 | -80.20195 | 11574 ft | 192 kts | 35° |
| 2026-05-06 10:30 | 8.28402 | -80.19379 | 11573 ft | 193 kts | 35° |
| 2026-05-06 10:30 | 8.29510 | -80.18568 | 11573 ft | 194 kts | 35° |
| 2026-05-06 10:31 | 8.30627 | -80.17753 | 11573 ft | 195 kts | 35° |
| 2026-05-06 10:31 | 8.31744 | -80.16936 | 11573 ft | 195 kts | 35° |
| 2026-05-06 10:31 | 8.32849 | -80.16130 | 11573 ft | 195 kts | 35° |
| 2026-05-06 10:31 | 8.33975 | -80.15307 | 11573 ft | 195 kts | 35° |
| 2026-05-06 10:32 | 8.35094 | -80.14490 | 11573 ft | 195 kts | 35° |
| 2026-05-06 10:32 | 8.36200 | -80.13681 | 11573 ft | 195 kts | 35° |
| 2026-05-06 10:32 | 8.37305 | -80.12852 | 11571 ft | 196 kts | 41° |
| 2026-05-06 10:32 | 8.38189 | -80.11771 | 11574 ft | 196 kts | 52° |
| 2026-05-06 10:33 | 8.39035 | -80.10655 | 11573 ft | 196 kts | 52° |
| 2026-05-06 10:33 | 8.39867 | -80.09525 | 11573 ft | 196 kts | 52° |
| 2026-05-06 10:33 | 8.40686 | -80.08411 | 11573 ft | 196 kts | 52° |
| 2026-05-06 10:33 | 8.41511 | -80.07282 | 11573 ft | 197 kts | 52° |
| 2026-05-06 10:34 | 8.42335 | -80.06155 | 11573 ft | 197 kts | 52° |
| 2026-05-06 10:34 | 8.43169 | -80.05015 | 11573 ft | 197 kts | 52° |
| 2026-05-06 10:34 | 8.43989 | -80.03892 | 11573 ft | 197 kts | 52° |
| 2026-05-06 10:34 | 8.44818 | -80.02756 | 11573 ft | 196 kts | 52° |
| 2026-05-06 10:35 | 8.45636 | -80.01636 | 11573 ft | 196 kts | 52° |
| 2026-05-06 10:35 | 8.46461 | -80.00507 | 11573 ft | 196 kts | 52° |
| 2026-05-06 10:35 | 8.47296 | -79.99363 | 11573 ft | 196 kts | 52° |
| 2026-05-06 10:35 | 8.48114 | -79.98242 | 11573 ft | 196 kts | 52° |
| 2026-05-06 10:36 | 8.48948 | -79.97101 | 11573 ft | 196 kts | 52° |
| 2026-05-06 10:36 | 8.49768 | -79.95978 | 11573 ft | 196 kts | 52° |
| 2026-05-06 10:36 | 8.50586 | -79.94856 | 11572 ft | 196 kts | 52° |
| 2026-05-06 10:36 | 8.51420 | -79.93714 | 11572 ft | 196 kts | 52° |
| 2026-05-06 10:37 | 8.52245 | -79.92584 | 11572 ft | 196 kts | 52° |
| 2026-05-06 10:37 | 8.52523 | -79.92203 | 11572 ft | 196 kts | 52° |
| 2026-05-06 10:37 | 8.53624 | -79.90693 | 11572 ft | 196 kts | 52° |
| 2026-05-06 10:37 | 8.54720 | -79.89191 | 11572 ft | 196 kts | 52° |
| 2026-05-06 10:38 | 8.55274 | -79.88433 | 11572 ft | 196 kts | 52° |
| 2026-05-06 10:38 | 8.56365 | -79.86936 | 11572 ft | 196 kts | 52° |
| 2026-05-06 10:38 | 8.57201 | -79.85791 | 11572 ft | 196 kts | 52° |
| 2026-05-06 10:38 | 8.57475 | -79.85415 | 11572 ft | 196 kts | 52° |
| 2026-05-06 10:39 | 8.58846 | -79.83535 | 11572 ft | 196 kts | 52° |
| 2026-05-06 10:39 | 8.59668 | -79.82408 | 11572 ft | 196 kts | 52° |
| 2026-05-06 10:39 | 8.60222 | -79.81649 | 11572 ft | 196 kts | 52° |
| 2026-05-06 10:39 | 8.61309 | -79.80157 | 11572 ft | 196 kts | 52° |
| 2026-05-06 10:40 | 8.62132 | -79.79028 | 11572 ft | 196 kts | 52° |
| 2026-05-06 10:40 | 8.62958 | -79.77895 | 11572 ft | 196 kts | 52° |
| 2026-05-06 10:40 | 8.63782 | -79.76765 | 11572 ft | 196 kts | 52° |
| 2026-05-06 10:40 | 8.64612 | -79.75626 | 11572 ft | 196 kts | 52° |
| 2026-05-06 10:41 | 8.65437 | -79.74495 | 11572 ft | 196 kts | 52° |
| 2026-05-06 10:41 | 8.65984 | -79.73745 | 11572 ft | 196 kts | 52° |
| 2026-05-06 10:41 | 8.67086 | -79.72231 | 11572 ft | 196 kts | 52° |
| 2026-05-06 10:41 | 8.67914 | -79.71095 | 11572 ft | 196 kts | 52° |
| 2026-05-06 10:42 | 8.68743 | -79.69957 | 11572 ft | 196 kts | 52° |
| 2026-05-06 10:42 | 8.69563 | -79.68832 | 11572 ft | 196 kts | 52° |
| 2026-05-06 10:42 | 8.70379 | -79.67712 | 11572 ft | 196 kts | 52° |
| 2026-05-06 10:42 | 8.71201 | -79.66582 | 11572 ft | 196 kts | 52° |
| 2026-05-06 10:43 | 8.72031 | -79.65443 | 11572 ft | 196 kts | 52° |
| 2026-05-06 10:43 | 8.72848 | -79.64322 | 11572 ft | 196 kts | 52° |
| 2026-05-06 10:43 | 8.73670 | -79.63193 | 11572 ft | 196 kts | 52° |
| 2026-05-06 10:44 | 8.75309 | -79.60942 | 11572 ft | 196 kts | 52° |
| 2026-05-06 10:44 | 8.76130 | -79.59815 | 11572 ft | 196 kts | 52° |
| 2026-05-06 10:44 | 8.76944 | -79.58696 | 11572 ft | 196 kts | 52° |
| 2026-05-06 10:44 | 8.77771 | -79.57561 | 11572 ft | 196 kts | 52° |
| 2026-05-06 10:45 | 8.78563 | -79.56416 | 11570 ft | 196 kts | 61° |
| 2026-05-06 10:45 | 8.79085 | -79.55117 | 11573 ft | 196 kts | 67° |
| 2026-05-06 10:45 | 8.79594 | -79.53797 | 11572 ft | 197 kts | 68° |
| 2026-05-06 10:45 | 8.80085 | -79.52463 | 11572 ft | 197 kts | 68° |
| 2026-05-06 10:46 | 8.80563 | -79.51150 | 11572 ft | 197 kts | 69° |
| 2026-05-06 10:46 | 8.81042 | -79.49823 | 11573 ft | 197 kts | 69° |
| 2026-05-06 10:46 | 8.81515 | -79.48510 | 11574 ft | 197 kts | 69° |
| 2026-05-06 10:46 | 8.81994 | -79.47176 | 11574 ft | 197 kts | 69° |
| 2026-05-06 10:47 | 8.82470 | -79.45848 | 11575 ft | 197 kts | 69° |
| 2026-05-06 10:47 | 8.82938 | -79.44542 | 11576 ft | 197 kts | 69° |
| 2026-05-06 10:47 | 8.83421 | -79.43195 | 11577 ft | 197 kts | 69° |
| 2026-05-06 10:47 | 8.83895 | -79.41871 | 11579 ft | 196 kts | 69° |
| 2026-05-06 10:48 | 8.84366 | -79.40557 | 11581 ft | 196 kts | 69° |
| 2026-05-06 10:48 | 8.84835 | -79.39247 | 11583 ft | 196 kts | 69° |
| 2026-05-06 10:48 | 8.85308 | -79.37924 | 11585 ft | 196 kts | 69° |
| 2026-05-06 10:48 | 8.85790 | -79.36578 | 11586 ft | 197 kts | 69° |
| 2026-05-06 10:49 | 8.86266 | -79.35249 | 11588 ft | 197 kts | 69° |
| 2026-05-06 10:49 | 8.86737 | -79.33934 | 11589 ft | 197 kts | 69° |
| 2026-05-06 10:49 | 8.87682 | -79.31293 | 11592 ft | 197 kts | 69° |
| 2026-05-06 10:50 | 8.88161 | -79.29953 | 11593 ft | 197 kts | 69° |
| 2026-05-06 10:50 | 8.88638 | -79.28622 | 11594 ft | 197 kts | 69° |
| 2026-05-06 10:50 | 8.89109 | -79.27306 | 11595 ft | 197 kts | 69° |
| 2026-05-06 10:50 | 8.89584 | -79.25977 | 11596 ft | 197 kts | 69° |
| 2026-05-06 10:51 | 8.90055 | -79.24658 | 11597 ft | 197 kts | 69° |
| 2026-05-06 10:51 | 8.90530 | -79.23330 | 11597 ft | 197 kts | 69° |
| 2026-05-06 10:51 | 8.91010 | -79.21986 | 11598 ft | 197 kts | 69° |
| 2026-05-06 10:51 | 8.91479 | -79.20676 | 11599 ft | 197 kts | 69° |
| 2026-05-06 10:52 | 8.91957 | -79.19338 | 11599 ft | 197 kts | 69° |
| 2026-05-06 10:52 | 8.92428 | -79.18021 | 11599 ft | 197 kts | 69° |
| 2026-05-06 10:52 | 8.92902 | -79.16695 | 11599 ft | 196 kts | 69° |
| 2026-05-06 10:52 | 8.93379 | -79.15362 | 11599 ft | 196 kts | 69° |
| 2026-05-06 10:53 | 8.93849 | -79.14050 | 11599 ft | 196 kts | 69° |
| 2026-05-06 10:53 | 8.94319 | -79.12734 | 11599 ft | 195 kts | 69° |
| 2026-05-06 10:53 | 8.94784 | -79.11435 | 11599 ft | 195 kts | 69° |
| 2026-05-06 10:53 | 8.95258 | -79.10108 | 11599 ft | 194 kts | 69° |
| 2026-05-06 10:54 | 8.95726 | -79.08799 | 11599 ft | 194 kts | 70° |
| 2026-05-06 10:54 | 8.96198 | -79.07481 | 11599 ft | 194 kts | 70° |
| 2026-05-06 10:54 | 8.96661 | -79.06187 | 11599 ft | 193 kts | 70° |
| 2026-05-06 10:54 | 8.97125 | -79.04888 | 11599 ft | 193 kts | 70° |
| 2026-05-06 10:55 | 8.97594 | -79.03584 | 11600 ft | 193 kts | 71° |
| 2026-05-06 10:55 | 8.98063 | -79.02268 | 11600 ft | 193 kts | 71° |
| 2026-05-06 10:55 | 8.98527 | -79.00966 | 11600 ft | 194 kts | 71° |
| 2026-05-06 10:55 | 8.98992 | -78.99657 | 11600 ft | 194 kts | 72° |
| 2026-05-06 10:56 | 8.99456 | -78.98353 | 11600 ft | 194 kts | 72° |
| 2026-05-06 10:56 | 8.99926 | -78.97034 | 11600 ft | 195 kts | 72° |
| 2026-05-06 10:56 | 9.00389 | -78.95732 | 11600 ft | 195 kts | 72° |
| 2026-05-06 10:56 | 9.00859 | -78.94410 | 11600 ft | 196 kts | 72° |
| 2026-05-06 10:57 | 9.01326 | -78.93095 | 11600 ft | 196 kts | 72° |
| 2026-05-06 10:57 | 9.01792 | -78.91783 | 11600 ft | 196 kts | 72° |
| 2026-05-06 10:57 | 9.02266 | -78.90453 | 11600 ft | 196 kts | 72° |
| 2026-05-06 10:57 | 9.02739 | -78.89124 | 11600 ft | 196 kts | 72° |
| 2026-05-06 10:58 | 9.03210 | -78.87801 | 11600 ft | 196 kts | 72° |
| 2026-05-06 10:58 | 9.03684 | -78.86470 | 11600 ft | 197 kts | 72° |
| 2026-05-06 10:58 | 9.04157 | -78.85142 | 11600 ft | 197 kts | 72° |
| 2026-05-06 10:58 | 9.04627 | -78.83822 | 11600 ft | 197 kts | 72° |
| 2026-05-06 10:59 | 9.05077 | -78.82497 | 11600 ft | 196 kts | 75° |
| 2026-05-06 10:59 | 9.05480 | -78.81134 | 11600 ft | 196 kts | 75° |
| 2026-05-06 10:59 | 9.05879 | -78.79784 | 11600 ft | 196 kts | 75° |
| 2026-05-06 10:59 | 9.06272 | -78.78441 | 11600 ft | 197 kts | 75° |
| 2026-05-06 11:00 | 9.06663 | -78.77100 | 11600 ft | 197 kts | 75° |
| 2026-05-06 11:00 | 9.07063 | -78.75728 | 11600 ft | 197 kts | 75° |
| 2026-05-06 11:00 | 9.07456 | -78.74378 | 11600 ft | 197 kts | 75° |
| 2026-05-06 11:00 | 9.07851 | -78.73023 | 11600 ft | 197 kts | 75° |
| 2026-05-06 11:01 | 9.08238 | -78.71694 | 11600 ft | 197 kts | 75° |
| 2026-05-06 11:01 | 9.08634 | -78.70332 | 11600 ft | 197 kts | 75° |
| 2026-05-06 11:01 | 9.09030 | -78.68972 | 11600 ft | 197 kts | 75° |
| 2026-05-06 11:01 | 9.09424 | -78.67616 | 11600 ft | 197 kts | 75° |
| 2026-05-06 11:02 | 9.09819 | -78.66260 | 11600 ft | 197 kts | 75° |
| 2026-05-06 11:02 | 9.10215 | -78.64896 | 11599 ft | 197 kts | 75° |
| 2026-05-06 11:02 | 9.10608 | -78.63544 | 11599 ft | 197 kts | 75° |
| 2026-05-06 11:02 | 9.11004 | -78.62180 | 11599 ft | 197 kts | 75° |
| 2026-05-06 11:03 | 9.11396 | -78.60834 | 11599 ft | 197 kts | 75° |
| 2026-05-06 11:03 | 9.11792 | -78.59471 | 11599 ft | 197 kts | 75° |
| 2026-05-06 11:03 | 9.12181 | -78.58130 | 11599 ft | 197 kts | 75° |
| 2026-05-06 11:03 | 9.12577 | -78.56767 | 11599 ft | 196 kts | 75° |
| 2026-05-06 11:04 | 9.12955 | -78.55448 | 11469 ft | 186 kts | 75° |
| 2026-05-06 11:04 | 9.13326 | -78.54179 | 11227 ft | 182 kts | 75° |
| 2026-05-06 11:04 | 9.13690 | -78.52937 | 10983 ft | 180 kts | 75° |
| 2026-05-06 11:04 | 9.14050 | -78.51698 | 10738 ft | 179 kts | 75° |
| 2026-05-06 11:05 | 9.14402 | -78.50484 | 10496 ft | 178 kts | 75° |
| 2026-05-06 11:05 | 9.14758 | -78.49257 | 10251 ft | 177 kts | 75° |
| 2026-05-06 11:05 | 9.15114 | -78.48030 | 10005 ft | 176 kts | 75° |
| 2026-05-06 11:05 | 9.15464 | -78.46823 | 9764 ft | 176 kts | 75° |
| 2026-05-06 11:06 | 9.15818 | -78.45605 | 9521 ft | 176 kts | 75° |
| 2026-05-06 11:06 | 9.16164 | -78.44409 | 9279 ft | 172 kts | 75° |
| 2026-05-06 11:06 | 9.16502 | -78.43245 | 9033 ft | 169 kts | 75° |
| 2026-05-06 11:06 | 9.16837 | -78.42090 | 8783 ft | 166 kts | 75° |
| 2026-05-06 11:07 | 9.17170 | -78.40941 | 8531 ft | 165 kts | 75° |
| 2026-05-06 11:07 | 9.17497 | -78.39814 | 8283 ft | 164 kts | 75° |
| 2026-05-06 11:07 | 9.17822 | -78.38693 | 8036 ft | 164 kts | 75° |
| 2026-05-06 11:07 | 9.18150 | -78.37560 | 7786 ft | 164 kts | 75° |
| 2026-05-06 11:08 | 9.18464 | -78.36478 | 7549 ft | 163 kts | 75° |
| 2026-05-06 11:08 | 9.18790 | -78.35353 | 7303 ft | 163 kts | 75° |
| 2026-05-06 11:08 | 9.19117 | -78.34222 | 7058 ft | 163 kts | 75° |
| 2026-05-06 11:08 | 9.19440 | -78.33109 | 6819 ft | 163 kts | 75° |
| 2026-05-06 11:09 | 9.19765 | -78.31980 | 6576 ft | 163 kts | 75° |
| 2026-05-06 11:09 | 9.20091 | -78.30864 | 6338 ft | 163 kts | 75° |
| 2026-05-06 11:09 | 9.20414 | -78.29739 | 6099 ft | 163 kts | 75° |
| 2026-05-06 11:09 | 9.20740 | -78.28622 | 5864 ft | 163 kts | 75° |
| 2026-05-06 11:10 | 9.21068 | -78.27490 | 5628 ft | 163 kts | 75° |
| 2026-05-06 11:10 | 9.21395 | -78.26363 | 5393 ft | 163 kts | 75° |
| 2026-05-06 11:10 | 9.21712 | -78.25243 | 5159 ft | 163 kts | 74° |
| 2026-05-06 11:10 | 9.22038 | -78.24130 | 4928 ft | 158 kts | 74° |
| 2026-05-06 11:11 | 9.22329 | -78.23103 | 4669 ft | 141 kts | 74° |
| 2026-05-06 11:11 | 9.22593 | -78.22212 | 4432 ft | 120 kts | 74° |
| 2026-05-06 11:11 | 9.22825 | -78.21424 | 4140 ft | 110 kts | 74° |
| 2026-05-06 11:11 | 9.23037 | -78.20682 | 3833 ft | 106 kts | 73° |
| 2026-05-06 11:12 | 9.23220 | -78.19953 | 3520 ft | 104 kts | 82° |
| 2026-05-06 11:12 | 9.23319 | -78.19173 | 3230 ft | 117 kts | 83° |
| 2026-05-06 11:12 | 9.23423 | -78.18317 | 2983 ft | 124 kts | 83° |
| 2026-05-06 11:12 | 9.23532 | -78.17419 | 2741 ft | 126 kts | 83° |
| 2026-05-06 11:13 | 9.23635 | -78.16515 | 2504 ft | 127 kts | 83° |
| 2026-05-06 11:13 | 9.23733 | -78.15616 | 2273 ft | 127 kts | 84° |
| 2026-05-06 11:13 | 9.23841 | -78.14704 | 2039 ft | 127 kts | 83° |
| 2026-05-06 11:13 | 9.23947 | -78.13817 | 1813 ft | 127 kts | 83° |
| 2026-05-06 11:14 | 9.24073 | -78.12915 | 1581 ft | 126 kts | 73° |
| 2026-05-06 11:14 | 9.24615 | -78.12268 | 1370 ft | 113 kts | 23° |
| 2026-05-06 11:14 | 9.25382 | -78.12241 | 1181 ft | 111 kts | 342° |
| 2026-05-06 11:14 | 9.26017 | -78.12648 | 1000 ft | 106 kts | 307° |
| 2026-05-06 11:15 | 9.26433 | -78.13268 | 815 ft | 104 kts | 304° |
| 2026-05-06 11:15 | 9.26993 | -78.13714 | 644 ft | 95 kts | 358° |
| 2026-05-06 11:15 | 9.27653 | -78.13609 | 565 ft | 93 kts | 2° |
| 2026-05-06 11:15 | 9.28320 | -78.13540 | 504 ft | 95 kts | 7° |
| 2026-05-06 11:16 | 9.28964 | -78.13538 | 537 ft | 89 kts | 330° |
| 2026-05-06 11:16 | 9.28890 | -78.13966 | 422 ft | 94 kts | 184° |
| 2026-05-06 11:16 | 9.28188 | -78.14052 | 149 ft | 91 kts | 199° |
| 2026-05-06 11:16 | 9.27577 | -78.14010 | 12 ft | 84 kts | 176° |
| 2026-05-06 11:17 | 9.27103 | -78.13937 | 14 ft | 36 kts | 160° |
| 2026-05-06 11:17 | 9.27078 | -78.13934 | 15 ft | 9 kts | 354° |
| 2026-05-06 11:17 | 9.27197 | -78.13953 | 10 ft | 23 kts | 353° |
| 2026-05-06 11:17 | 9.27393 | -78.13987 | 6 ft | 28 kts | 350° |
| 2026-05-06 11:18 | 9.27561 | -78.14017 | 5 ft | 10 kts | 354° |
| 2026-05-06 11:18 | 9.27583 | -78.14020 | 4 ft | 5 kts | 347° |
| 2026-05-06 11:18 | 9.27620 | -78.14027 | 4 ft | 4 kts | 339° |
| 2026-05-06 11:18 | 9.27630 | -78.14035 | 4 ft | 0 kts | 307° |